Time;durP1;ratioP1;P1;durP2;ratioP2;P2;SDS_P1;SDS_P2;PMS_P1;PMS_P2;Temp;Humidity;BMP_temperature;BMP_pressure;BME280_temperature;BME280_humidity;BME280_pressure;Samples;Min_cycle;Max_cycle;Signal;HPM_P1;HPM_P2
2023/05/16 00:02:27;;;;;;;6.43;5.70;;;;;;;;;;5080879;28;20206;-65
2023/05/16 00:04:55;;;;;;;7.03;5.97;;;;;;;;;;5080767;28;20206;-66
2023/05/16 00:07:24;;;;;;;7.93;6.00;;;;;;;;;;5081082;28;20202;-65
2023/05/16 00:09:51;;;;;;;8.67;6.83;;;;;;;;;;5080974;28;20611;-66
2023/05/16 00:12:21;;;;;;;7.67;6.10;;;;;;;;;;5081188;28;20233;-66
2023/05/16 00:14:49;;;;;;;8.60;5.97;;;;;;;;;;5081158;28;20260;-65
2023/05/16 00:17:19;;;;;;;9.33;6.80;;;;;;;;;;5081020;28;20255;-65
2023/05/16 00:19:47;;;;;;;7.30;5.97;;;;;;;;;;5080917;28;20210;-65
2023/05/16 00:22:16;;;;;;;10.07;6.83;;;;;;;;;;5080779;28;20236;-64
2023/05/16 00:24:45;;;;;;;9.57;6.87;;;;;;;;;;5080685;28;20210;-63
2023/05/16 00:27:12;;;;;;;11.60;7.13;;;;;;;;;;5080540;28;20248;-65
2023/05/16 00:29:40;;;;;;;8.43;6.60;;;;;;;;;;5080763;28;20236;-64
2023/05/16 00:32:08;;;;;;;8.70;6.37;;;;;;;;;;5080681;28;20228;-65
2023/05/16 00:34:36;;;;;;;9.60;6.90;;;;;;;;;;5080349;28;20206;-65
2023/05/16 00:37:05;;;;;;;8.33;7.00;;;;;;;;;;5080343;28;20230;-63
2023/05/16 00:39:32;;;;;;;9.97;7.40;;;;;;;;;;5079990;28;20238;-64
2023/05/16 00:42:01;;;;;;;10.43;7.20;;;;;;;;;;5080085;28;20230;-64
2023/05/16 00:44:29;;;;;;;8.03;6.47;;;;;;;;;;5080606;28;20221;-64
2023/05/16 00:46:59;;;;;;;10.40;6.90;;;;;;;;;;5080312;28;20230;-65
2023/05/16 00:49:26;;;;;;;8.93;7.40;;;;;;;;;;5080373;28;20205;-65
2023/05/16 00:51:54;;;;;;;8.87;6.63;;;;;;;;;;5080134;28;20238;-65
2023/05/16 00:54:22;;;;;;;10.77;6.87;;;;;;;;;;5079999;28;20575;-65
2023/05/16 00:56:50;;;;;;;9.33;7.23;;;;;;;;;;5079830;28;20226;-65
2023/05/16 00:59:19;;;;;;;10.47;7.00;;;;;;;;;;5080073;28;20233;-65
2023/05/16 01:01:47;;;;;;;9.07;6.93;;;;;;;;;;5079832;28;20272;-65
2023/05/16 01:04:15;;;;;;;9.57;7.17;;;;;;;;;;5079888;28;20229;-65
2023/05/16 01:06:43;;;;;;;11.30;7.13;;;;;;;;;;5079977;28;20230;-65
2023/05/16 01:09:11;;;;;;;8.03;6.50;;;;;;;;;;5080006;28;20718;-65
2023/05/16 01:11:43;;;;;;;9.23;7.00;;;;;;;;;;5079264;28;20205;-65
2023/05/16 01:14:14;;;;;;;15.03;7.30;;;;;;;;;;5080056;28;20665;-66
2023/05/16 01:16:47;;;;;;;11.17;7.30;;;;;;;;;;5079979;28;20234;-64
2023/05/16 01:19:21;;;;;;;8.27;6.60;;;;;;;;;;5079973;28;20202;-65
2023/05/16 01:21:56;;;;;;;8.20;6.63;;;;;;;;;;5079346;28;20279;-65
2023/05/16 01:24:33;;;;;;;9.00;6.50;;;;;;;;;;5079858;28;20653;-65
2023/05/16 01:27:04;;;;;;;10.97;7.23;;;;;;;;;;5079154;28;20253;-65
2023/05/16 01:29:32;;;;;;;10.03;7.70;;;;;;;;;;5079800;28;20669;-65
2023/05/16 01:32:00;;;;;;;7.47;6.53;;;;;;;;;;5068386;28;20202;-65
2023/05/16 01:34:27;;;;;;;9.93;7.40;;;;;;;;;;5079356;28;20206;-65
2023/05/16 01:37:03;;;;;;;8.03;6.97;;;;;;;;;;5079242;28;20733;-65
2023/05/16 01:39:37;;;;;;;11.13;7.10;;;;;;;;;;5079149;28;20691;-65
2023/05/16 01:42:08;;;;;;;10.60;7.90;;;;;;;;;;5079183;28;20238;-65
2023/05/16 01:44:37;;;;;;;9.03;6.97;;;;;;;;;;5079031;28;20616;-65
2023/05/16 01:47:07;;;;;;;10.67;7.23;;;;;;;;;;5079195;28;20261;-65
2023/05/16 01:49:36;;;;;;;10.03;7.60;;;;;;;;;;5079179;28;20210;-64
2023/05/16 01:52:07;;;;;;;7.97;6.37;;;;;;;;;;5078961;28;20613;-65
2023/05/16 01:54:37;;;;;;;10.10;7.63;;;;;;;;;;5078821;28;20639;-64
2023/05/16 01:57:07;;;;;;;10.63;7.87;;;;;;;;;;5078612;28;20230;-64
2023/05/16 01:59:35;;;;;;;8.70;7.10;;;;;;;;;;5078929;28;20202;-64
2023/05/16 02:02:02;;;;;;;12.17;7.70;;;;;;;;;;5078525;28;20245;-65
2023/05/16 02:04:30;;;;;;;9.00;7.10;;;;;;;;;;5078571;28;20214;-63
2023/05/16 02:06:59;;;;;;;7.93;6.70;;;;;;;;;;5078806;28;20226;-63
2023/05/16 02:09:27;;;;;;;12.83;7.23;;;;;;;;;;5078640;28;20210;-64
2023/05/16 02:11:54;;;;;;;9.10;7.10;;;;;;;;;;5079047;28;20260;-64
2023/05/16 02:14:24;;;;;;;10.70;7.70;;;;;;;;;;5078739;28;20230;-64
2023/05/16 02:16:52;;;;;;;10.37;7.40;;;;;;;;;;5078591;28;20230;-64
2023/05/16 02:19:20;;;;;;;8.43;7.33;;;;;;;;;;5078481;28;20661;-64
2023/05/16 02:21:47;;;;;;;9.80;7.53;;;;;;;;;;5078221;28;20360;-65
2023/05/16 02:24:15;;;;;;;10.73;7.47;;;;;;;;;;5077915;28;20661;-65
2023/05/16 02:26:43;;;;;;;12.00;7.97;;;;;;;;;;5078059;28;20226;-64
2023/05/16 02:29:11;;;;;;;13.63;7.40;;;;;;;;;;5078657;28;20210;-64
2023/05/16 02:31:41;;;;;;;11.03;8.00;;;;;;;;;;5078293;28;20210;-63
2023/05/16 02:34:09;;;;;;;9.10;7.30;;;;;;;;;;5078269;28;20293;-63
2023/05/16 02:36:37;;;;;;;10.13;7.37;;;;;;;;;;5078338;28;20233;-64
2023/05/16 02:39:05;;;;;;;9.57;7.47;;;;;;;;;;5078400;28;20668;-63
2023/05/16 02:41:32;;;;;;;10.47;7.43;;;;;;;;;;5077594;28;20279;-63
2023/05/16 02:44:00;;;;;;;9.27;7.40;;;;;;;;;;5078177;28;20661;-63
2023/05/16 02:46:29;;;;;;;10.60;7.87;;;;;;;;;;5077837;28;20230;-65
2023/05/16 02:48:58;;;;;;;9.20;7.00;;;;;;;;;;5078243;28;20657;-65
2023/05/16 02:51:27;;;;;;;9.20;7.20;;;;;;;;;;5077842;28;20206;-65
2023/05/16 02:53:58;;;;;;;9.53;6.50;;;;;;;;;;5078195;28;20266;-65
2023/05/16 02:56:26;;;;;;;11.13;7.47;;;;;;;;;;5077488;28;20226;-65
2023/05/16 02:58:54;;;;;;;11.73;7.77;;;;;;;;;;5078012;28;20206;-65
2023/05/16 03:01:22;;;;;;;9.57;7.33;;;;;;;;;;5077585;28;20342;-65
2023/05/16 03:03:50;;;;;;;10.30;7.70;;;;;;;;;;5077635;28;20214;-65
2023/05/16 03:06:20;;;;;;;10.23;7.40;;;;;;;;;;5077706;28;20226;-65
2023/05/16 03:08:47;;;;;;;9.80;7.37;;;;;;;;;;5077927;28;20205;-65
2023/05/16 03:11:17;;;;;;;12.60;7.97;;;;;;;;;;5077764;28;20221;-65
2023/05/16 03:13:45;;;;;;;9.83;7.43;;;;;;;;;;5077788;28;20207;-65
2023/05/16 03:16:14;;;;;;;10.97;7.80;;;;;;;;;;5077804;28;20229;-64
2023/05/16 03:18:42;;;;;;;9.23;7.63;;;;;;;;;;5077850;28;20247;-64
2023/05/16 03:21:09;;;;;;;10.13;7.70;;;;;;;;;;5077856;28;20293;-64
2023/05/16 03:23:38;;;;;;;10.60;7.73;;;;;;;;;;5077721;28;20226;-64
2023/05/16 03:26:06;;;;;;;10.60;7.97;;;;;;;;;;5077469;28;20222;-65
2023/05/16 03:28:34;;;;;;;11.40;7.77;;;;;;;;;;5077608;28;20206;-65
2023/05/16 03:31:02;;;;;;;9.90;7.03;;;;;;;;;;5076765;28;20217;-65
2023/05/16 03:33:29;;;;;;;10.17;7.60;;;;;;;;;;5071911;28;20198;-65
2023/05/16 03:35:57;;;;;;;9.47;6.90;;;;;;;;;;5081372;28;20257;-65
2023/05/16 03:38:25;;;;;;;12.03;7.50;;;;;;;;;;5082132;28;20232;-65
2023/05/16 03:40:54;;;;;;;11.43;7.40;;;;;;;;;;5081668;28;20609;-65
2023/05/16 03:43:22;;;;;;;9.30;7.40;;;;;;;;;;5081820;28;20237;-65
2023/05/16 03:45:51;;;;;;;10.90;7.13;;;;;;;;;;5081616;28;20279;-65
2023/05/16 03:48:19;;;;;;;8.53;7.10;;;;;;;;;;5081369;28;20233;-65
2023/05/16 03:50:46;;;;;;;8.73;6.83;;;;;;;;;;5081454;28;20236;-65
2023/05/16 03:53:14;;;;;;;12.87;7.73;;;;;;;;;;5081542;28;20203;-65
2023/05/16 03:55:42;;;;;;;10.17;7.33;;;;;;;;;;5081000;28;20230;-65
2023/05/16 03:58:12;;;;;;;13.10;7.40;;;;;;;;;;5077738;28;20210;-65
2023/05/16 04:00:39;;;;;;;11.43;9.10;;;;;;;;;;5080654;28;20222;-65
2023/05/16 04:03:07;;;;;;;9.37;7.27;;;;;;;;;;5071701;28;20221;-65
2023/05/16 04:05:35;;;;;;;12.43;7.30;;;;;;;;;;5080877;28;20232;-65
2023/05/16 04:08:03;;;;;;;10.20;7.57;;;;;;;;;;5080755;28;20202;-66
2023/05/16 04:10:30;;;;;;;10.17;7.37;;;;;;;;;;5080559;28;20205;-65
2023/05/16 04:12:58;;;;;;;14.13;8.17;;;;;;;;;;5080576;28;20543;-64
2023/05/16 04:15:27;;;;;;;13.87;8.40;;;;;;;;;;5080115;28;20268;-65
2023/05/16 04:17:55;;;;;;;13.33;8.43;;;;;;;;;;5071542;28;20209;-65
2023/05/16 04:20:23;;;;;;;10.57;7.83;;;;;;;;;;5062430;28;20214;-65
2023/05/16 04:22:52;;;;;;;13.17;8.70;;;;;;;;;;5071071;28;20233;-65
2023/05/16 04:25:20;;;;;;;10.57;7.93;;;;;;;;;;5073581;28;20217;-65
2023/05/16 04:27:47;;;;;;;15.47;8.70;;;;;;;;;;5080748;28;20202;-65
2023/05/16 04:30:15;;;;;;;12.03;7.53;;;;;;;;;;5080661;28;20233;-65
2023/05/16 04:32:44;;;;;;;13.13;8.43;;;;;;;;;;5080447;28;20198;-66
2023/05/16 04:35:12;;;;;;;13.87;8.50;;;;;;;;;;5080281;28;20313;-65
2023/05/16 04:37:40;;;;;;;13.87;7.53;;;;;;;;;;5080658;28;20233;-66
2023/05/16 04:40:08;;;;;;;11.47;8.03;;;;;;;;;;5076117;28;20202;-66
2023/05/16 04:42:36;;;;;;;14.27;8.90;;;;;;;;;;5080079;28;20280;-66
2023/05/16 04:45:05;;;;;;;12.60;8.40;;;;;;;;;;5080214;28;20210;-66
2023/05/16 04:47:33;;;;;;;13.00;8.40;;;;;;;;;;5079691;28;20221;-66
2023/05/16 04:50:02;;;;;;;11.90;8.60;;;;;;;;;;5080425;28;20718;-66
2023/05/16 04:52:30;;;;;;;10.20;7.77;;;;;;;;;;5080107;28;20255;-65
2023/05/16 04:54:59;;;;;;;13.37;8.03;;;;;;;;;;5080197;28;20228;-65
2023/05/16 04:57:27;;;;;;;11.93;7.07;;;;;;;;;;5080111;28;20210;-66
2023/05/16 04:59:55;;;;;;;12.03;7.80;;;;;;;;;;5079920;28;20232;-66
2023/05/16 05:02:22;;;;;;;10.87;7.47;;;;;;;;;;5069811;28;20803;-65
2023/05/16 05:04:50;;;;;;;11.50;8.63;;;;;;;;;;5080071;28;20230;-64
2023/05/16 05:07:19;;;;;;;13.77;8.27;;;;;;;;;;5080371;28;20206;-65
2023/05/16 05:09:47;;;;;;;11.67;8.00;;;;;;;;;;5079089;28;20217;-64
2023/05/16 05:12:15;;;;;;;12.43;7.70;;;;;;;;;;5076514;28;20198;-66
2023/05/16 05:14:43;;;;;;;15.43;8.13;;;;;;;;;;5079145;28;20221;-64
2023/05/16 05:17:10;;;;;;;11.77;8.37;;;;;;;;;;5083654;28;20198;-64
2023/05/16 05:19:38;;;;;;;11.63;7.60;;;;;;;;;;5084836;28;20669;-64
2023/05/16 05:22:06;;;;;;;12.13;7.13;;;;;;;;;;5079229;28;20574;-66
2023/05/16 05:24:35;;;;;;;13.67;8.57;;;;;;;;;;5078965;28;20252;-66
2023/05/16 05:27:03;;;;;;;12.73;8.30;;;;;;;;;;5078971;28;20229;-66
2023/05/16 05:29:30;;;;;;;13.83;8.23;;;;;;;;;;5076437;28;20199;-65
2023/05/16 05:31:58;;;;;;;15.43;8.50;;;;;;;;;;5078587;28;20198;-66
2023/05/16 05:34:26;;;;;;;16.33;8.87;;;;;;;;;;5078690;28;20279;-66
2023/05/16 05:36:53;;;;;;;12.13;8.00;;;;;;;;;;5078518;28;20249;-66
2023/05/16 05:39:21;;;;;;;14.23;7.43;;;;;;;;;;5078443;28;20202;-66
2023/05/16 05:41:50;;;;;;;15.40;8.90;;;;;;;;;;5078582;28;20226;-66
2023/05/16 05:44:18;;;;;;;13.60;8.40;;;;;;;;;;5078641;28;20258;-66
2023/05/16 05:46:45;;;;;;;10.47;7.10;;;;;;;;;;5078758;28;20233;-66
2023/05/16 05:49:13;;;;;;;11.80;7.83;;;;;;;;;;5078877;28;20206;-66
2023/05/16 05:51:41;;;;;;;11.33;7.97;;;;;;;;;;5078840;28;20210;-66
2023/05/16 05:54:09;;;;;;;11.03;7.60;;;;;;;;;;5078786;28;20209;-66
2023/05/16 05:56:36;;;;;;;12.37;7.80;;;;;;;;;;5078043;28;20222;-66
2023/05/16 05:59:05;;;;;;;13.57;8.30;;;;;;;;;;5077707;28;20206;-66
2023/05/16 06:01:33;;;;;;;15.20;7.77;;;;;;;;;;5075771;28;20230;-65
2023/05/16 06:04:01;;;;;;;14.53;7.63;;;;;;;;;;5077939;28;20221;-65
2023/05/16 06:06:30;;;;;;;12.73;7.70;;;;;;;;;;5075124;28;20226;-67
2023/05/16 06:08:57;;;;;;;15.47;7.97;;;;;;;;;;5076822;28;20210;-65
2023/05/16 06:11:25;;;;;;;9.50;7.53;;;;;;;;;;5075519;28;20247;-67
2023/05/16 06:13:53;;;;;;;13.50;7.67;;;;;;;;;;5078231;28;20194;-68
2023/05/16 06:16:25;;;;;;;13.70;7.73;;;;;;;;;;5078031;28;20268;-65
2023/05/16 06:18:53;;;;;;;12.97;7.67;;;;;;;;;;5077846;28;20194;-64
2023/05/16 06:21:20;;;;;;;12.87;8.40;;;;;;;;;;5078373;28;20650;-65
2023/05/16 06:23:48;;;;;;;10.43;7.07;;;;;;;;;;5078082;28;20312;-65
2023/05/16 06:26:16;;;;;;;12.03;7.20;;;;;;;;;;5071675;28;20274;-65
2023/05/16 06:28:43;;;;;;;13.87;8.33;;;;;;;;;;5077333;28;20275;-64
2023/05/16 06:31:11;;;;;;;12.60;7.97;;;;;;;;;;5077734;28;20210;-64
2023/05/16 06:33:40;;;;;;;12.03;7.23;;;;;;;;;;5077660;28;20198;-65
2023/05/16 06:36:08;;;;;;;11.87;7.70;;;;;;;;;;5077834;28;20222;-65
2023/05/16 06:38:36;;;;;;;13.20;7.63;;;;;;;;;;5077910;28;20206;-65
2023/05/16 06:41:03;;;;;;;13.63;8.60;;;;;;;;;;5077605;28;20276;-65
2023/05/16 06:43:31;;;;;;;14.13;7.70;;;;;;;;;;5078043;28;20206;-64
2023/05/16 06:45:59;;;;;;;12.10;8.00;;;;;;;;;;5078006;28;20233;-63
2023/05/16 06:48:27;;;;;;;13.83;7.67;;;;;;;;;;5077596;28;20210;-64
2023/05/16 06:50:56;;;;;;;14.13;8.30;;;;;;;;;;5077690;28;20752;-66
2023/05/16 06:53:25;;;;;;;12.23;8.47;;;;;;;;;;5078294;28;20217;-64
2023/05/16 06:55:53;;;;;;;14.10;7.73;;;;;;;;;;5078010;28;20261;-65
2023/05/16 06:58:21;;;;;;;16.57;8.67;;;;;;;;;;5078286;28;20283;-64
2023/05/16 07:00:49;;;;;;;17.70;9.63;;;;;;;;;;5078007;28;20248;-64
2023/05/16 07:03:17;;;;;;;14.13;7.87;;;;;;;;;;5077917;28;20214;-64
2023/05/16 07:05:45;;;;;;;14.80;8.40;;;;;;;;;;5077715;28;20238;-63
2023/05/16 07:08:14;;;;;;;14.33;8.57;;;;;;;;;;5077845;28;20289;-64
2023/05/16 07:10:42;;;;;;;15.60;9.40;;;;;;;;;;5077190;28;20213;-64
2023/05/16 07:13:09;;;;;;;15.53;8.43;;;;;;;;;;5075084;28;20201;-66
2023/05/16 07:15:37;;;;;;;11.70;7.33;;;;;;;;;;5069234;28;20214;-66
2023/05/16 07:18:05;;;;;;;16.63;8.27;;;;;;;;;;5077588;28;20264;-66
2023/05/16 07:20:33;;;;;;;14.70;7.97;;;;;;;;;;5077551;28;20259;-65
2023/05/16 07:23:00;;;;;;;13.87;8.17;;;;;;;;;;5077432;28;20212;-64
2023/05/16 07:25:29;;;;;;;12.97;7.77;;;;;;;;;;5077327;28;20248;-66
2023/05/16 07:27:57;;;;;;;13.47;7.70;;;;;;;;;;5077254;28;20210;-65
2023/05/16 07:30:25;;;;;;;16.07;7.50;;;;;;;;;;5077756;28;20213;-66
2023/05/16 07:32:53;;;;;;;14.83;7.90;;;;;;;;;;5077655;28;20222;-65
2023/05/16 07:35:21;;;;;;;11.20;7.67;;;;;;;;;;5077617;28;20300;-64
2023/05/16 07:37:49;;;;;;;15.80;8.00;;;;;;;;;;5077437;28;20271;-64
2023/05/16 07:40:17;;;;;;;12.30;7.23;;;;;;;;;;5077145;28;20633;-66
2023/05/16 07:42:46;;;;;;;12.63;7.60;;;;;;;;;;5064356;28;20725;-66
2023/05/16 07:45:14;;;;;;;13.03;7.70;;;;;;;;;;5077381;28;20294;-66
2023/05/16 07:47:42;;;;;;;10.27;7.40;;;;;;;;;;5077166;28;20281;-66
2023/05/16 07:50:10;;;;;;;13.33;8.67;;;;;;;;;;5077192;28;20263;-66
2023/05/16 07:52:38;;;;;;;10.87;7.33;;;;;;;;;;5077216;28;20206;-66
2023/05/16 07:55:06;;;;;;;14.20;7.43;;;;;;;;;;5076822;28;20787;-66
2023/05/16 07:57:33;;;;;;;12.73;7.50;;;;;;;;;;5077278;28;20657;-66
2023/05/16 08:00:03;;;;;;;15.20;7.80;;;;;;;;;;5077143;28;20210;-65
2023/05/16 08:02:31;;;;;;;12.03;8.00;;;;;;;;;;5077389;28;20244;-66
2023/05/16 08:04:59;;;;;;;9.73;6.63;;;;;;;;;;5077062;28;20716;-66
2023/05/16 08:07:27;;;;;;;10.30;6.23;;;;;;;;;;5077269;28;20228;-65
2023/05/16 08:09:55;;;;;;;13.77;7.67;;;;;;;;;;5076887;28;20210;-65
2023/05/16 08:12:23;;;;;;;12.23;6.70;;;;;;;;;;5077200;28;20202;-66
2023/05/16 08:14:51;;;;;;;9.63;6.73;;;;;;;;;;5077072;28;20202;-66
2023/05/16 08:17:20;;;;;;;12.17;6.87;;;;;;;;;;5076998;28;20206;-65
2023/05/16 08:19:48;;;;;;;10.17;7.07;;;;;;;;;;5077224;28;20212;-66
2023/05/16 08:22:16;;;;;;;9.93;6.60;;;;;;;;;;5079278;28;20210;-66
2023/05/16 08:24:44;;;;;;;13.70;7.40;;;;;;;;;;5080445;28;20322;-65
2023/05/16 08:27:12;;;;;;;13.20;6.83;;;;;;;;;;5080602;28;20213;-66
2023/05/16 08:29:39;;;;;;;9.70;6.23;;;;;;;;;;5080495;28;20293;-65
2023/05/16 08:32:08;;;;;;;9.97;6.33;;;;;;;;;;5080671;28;20210;-65
2023/05/16 08:34:37;;;;;;;7.83;5.97;;;;;;;;;;5080504;28;20205;-66
2023/05/16 08:37:05;;;;;;;10.10;5.93;;;;;;;;;;5080514;28;20233;-65
2023/05/16 08:39:33;;;;;;;7.43;5.07;;;;;;;;;;5080224;28;20214;-66
2023/05/16 08:42:00;;;;;;;8.70;6.10;;;;;;;;;;5080140;28;20210;-65
2023/05/16 08:44:28;;;;;;;9.67;6.47;;;;;;;;;;5080330;28;20229;-66
2023/05/16 08:46:56;;;;;;;7.60;5.60;;;;;;;;;;5080267;28;20229;-66
2023/05/16 08:49:27;;;;;;;11.00;6.37;;;;;;;;;;5080325;28;20203;-66
2023/05/16 08:51:58;;;;;;;7.57;5.17;;;;;;;;;;5080330;28;20213;-66
2023/05/16 08:54:26;;;;;;;11.40;5.67;;;;;;;;;;5079665;28;20214;-66
2023/05/16 08:56:55;;;;;;;11.33;6.83;;;;;;;;;;5080032;28;20218;-66
2023/05/16 08:59:22;;;;;;;12.03;5.83;;;;;;;;;;5080231;28;20206;-66
2023/05/16 09:01:50;;;;;;;8.50;5.67;;;;;;;;;;5079813;28;20260;-66
2023/05/16 09:04:18;;;;;;;10.17;5.83;;;;;;;;;;5079895;28;20217;-67
2023/05/16 09:06:46;;;;;;;7.77;5.60;;;;;;;;;;5079836;28;20627;-66
2023/05/16 09:09:15;;;;;;;12.57;6.70;;;;;;;;;;5079824;28;20210;-65
2023/05/16 09:11:42;;;;;;;7.67;5.50;;;;;;;;;;5079578;28;20221;-65
2023/05/16 09:14:10;;;;;;;10.17;5.63;;;;;;;;;;5077197;28;20247;-65
2023/05/16 09:16:39;;;;;;;7.90;5.40;;;;;;;;;;5071806;28;20222;-65
2023/05/16 09:19:07;;;;;;;9.83;5.73;;;;;;;;;;5079757;28;20210;-64
2023/05/16 09:21:35;;;;;;;10.43;5.20;;;;;;;;;;5079852;28;20650;-64
2023/05/16 09:24:03;;;;;;;8.80;5.87;;;;;;;;;;5079137;28;20206;-65
2023/05/16 09:26:32;;;;;;;10.63;5.33;;;;;;;;;;5077228;28;20226;-64
2023/05/16 09:29:01;;;;;;;7.30;5.20;;;;;;;;;;5071211;28;20615;-64
2023/05/16 09:31:35;;;;;;;8.33;5.50;;;;;;;;;;5079242;28;20293;-64
2023/05/16 09:34:04;;;;;;;8.37;4.83;;;;;;;;;;5079354;28;20232;-65
2023/05/16 09:36:32;;;;;;;7.53;5.00;;;;;;;;;;5079460;28;20313;-65
2023/05/16 09:39:00;;;;;;;6.83;5.27;;;;;;;;;;5079139;28;20628;-65
2023/05/16 09:41:28;;;;;;;8.20;5.40;;;;;;;;;;5079056;28;20210;-64
2023/05/16 09:43:58;;;;;;;8.23;4.77;;;;;;;;;;5079338;28;20653;-64
2023/05/16 09:46:26;;;;;;;8.67;5.10;;;;;;;;;;5079335;28;20261;-64
2023/05/16 09:48:54;;;;;;;7.97;5.53;;;;;;;;;;5078996;28;20210;-64
2023/05/16 09:51:22;;;;;;;9.70;5.53;;;;;;;;;;5079233;28;20206;-65
2023/05/16 09:53:50;;;;;;;5.10;4.40;;;;;;;;;;5078877;28;20253;-64
2023/05/16 09:56:18;;;;;;;7.93;5.40;;;;;;;;;;5078792;28;20218;-64
2023/05/16 09:58:46;;;;;;;13.00;5.10;;;;;;;;;;5078896;28;20208;-64
2023/05/16 10:01:15;;;;;;;7.47;5.50;;;;;;;;;;5078622;28;20238;-64
2023/05/16 10:03:43;;;;;;;9.43;5.07;;;;;;;;;;5078443;28;20632;-65
2023/05/16 10:06:12;;;;;;;8.73;4.43;;;;;;;;;;5078470;28;20610;-65
2023/05/16 10:08:42;;;;;;;6.60;4.80;;;;;;;;;;5078914;28;20256;-64
2023/05/16 10:11:10;;;;;;;7.93;4.93;;;;;;;;;;5078340;28;20574;-64
2023/05/16 10:13:38;;;;;;;7.07;4.50;;;;;;;;;;5078441;28;20274;-64
2023/05/16 10:16:07;;;;;;;5.57;4.30;;;;;;;;;;5077866;28;20587;-64
2023/05/16 10:18:38;;;;;;;7.57;4.40;;;;;;;;;;5078380;28;20213;-64
2023/05/16 10:21:07;;;;;;;7.20;4.03;;;;;;;;;;5078465;28;20285;-63
2023/05/16 10:23:40;;;;;;;6.50;4.27;;;;;;;;;;5078220;28;20206;-64
2023/05/16 10:26:08;;;;;;;4.47;3.83;;;;;;;;;;5077724;28;20685;-64
2023/05/16 10:28:36;;;;;;;5.07;4.23;;;;;;;;;;5065431;28;20293;-65
2023/05/16 10:31:05;;;;;;;7.60;4.37;;;;;;;;;;5078413;28;20208;-63
2023/05/16 10:33:32;;;;;;;9.07;5.20;;;;;;;;;;5077852;28;20251;-65
2023/05/16 10:36:02;;;;;;;5.77;4.10;;;;;;;;;;5077765;28;20682;-66
2023/05/16 10:38:30;;;;;;;5.53;4.20;;;;;;;;;;5075674;28;20220;-65
2023/05/16 10:40:58;;;;;;;6.60;3.80;;;;;;;;;;5077276;28;20229;-64
2023/05/16 10:43:26;;;;;;;5.90;3.90;;;;;;;;;;5077513;28;20202;-63
2023/05/16 10:45:55;;;;;;;6.63;3.77;;;;;;;;;;5077487;28;20321;-64
2023/05/16 10:48:28;;;;;;;4.77;3.80;;;;;;;;;;5077004;28;20259;-65
2023/05/16 10:50:56;;;;;;;4.63;3.50;;;;;;;;;;5076549;28;20669;-65
2023/05/16 10:53:30;;;;;;;3.97;3.57;;;;;;;;;;5076694;28;20285;-65
2023/05/16 10:56:06;;;;;;;6.80;3.07;;;;;;;;;;5075777;28;20305;-64
2023/05/16 10:58:42;;;;;;;2.97;2.67;;;;;;;;;;5077283;28;20276;-64
2023/05/16 11:01:20;;;;;;;3.47;2.83;;;;;;;;;;5077162;28;20229;-64
2023/05/16 11:04:18;;;;;;;6.00;3.53;;;;;;;;;;5077564;28;20261;-64
2023/05/16 11:06:51;;;;;;;16.77;3.97;;;;;;;;;;5033792;28;20227;-65
2023/05/16 11:09:22;;;;;;;3.57;2.80;;;;;;;;;;5065845;28;20284;-63
2023/05/16 11:11:58;;;;;;;6.10;3.40;;;;;;;;;;5077339;28;20221;-63
2023/05/16 11:14:27;;;;;;;4.03;2.87;;;;;;;;;;5075830;28;20232;-64
2023/05/16 11:17:00;;;;;;;4.27;2.53;;;;;;;;;;5077089;28;20217;-64
2023/05/16 11:19:33;;;;;;;4.80;2.50;;;;;;;;;;5077871;28;20194;-64
2023/05/16 11:22:07;;;;;;;4.50;2.33;;;;;;;;;;5076849;28;20203;-65
2023/05/16 11:24:37;;;;;;;4.93;2.73;;;;;;;;;;5077382;28;20202;-64
2023/05/16 11:27:06;;;;;;;5.37;3.20;;;;;;;;;;5075471;28;20265;-65
2023/05/16 11:29:34;;;;;;;3.97;3.10;;;;;;;;;;5077000;28;20224;-64
2023/05/16 11:32:02;;;;;;;3.00;2.70;;;;;;;;;;5077145;28;20206;-65
2023/05/16 11:34:31;;;;;;;3.87;2.70;;;;;;;;;;5077556;28;20212;-64
2023/05/16 11:37:00;;;;;;;5.60;2.60;;;;;;;;;;5077190;28;20222;-64
2023/05/16 11:39:30;;;;;;;4.60;2.50;;;;;;;;;;5077520;28;20210;-65
2023/05/16 11:41:59;;;;;;;5.73;2.83;;;;;;;;;;5077224;28;20217;-64
2023/05/16 11:44:27;;;;;;;3.33;2.53;;;;;;;;;;5077332;28;20210;-65
2023/05/16 11:46:55;;;;;;;3.40;2.17;;;;;;;;;;5077306;28;20232;-65
2023/05/16 11:49:23;;;;;;;5.00;2.03;;;;;;;;;;5076613;28;20273;-66
2023/05/16 11:51:54;;;;;;;2.80;2.00;;;;;;;;;;5077363;28;20209;-65
2023/05/16 11:54:22;;;;;;;6.30;2.43;;;;;;;;;;5077067;28;20206;-66
2023/05/16 11:56:50;;;;;;;3.57;2.57;;;;;;;;;;5080591;28;20222;-66
2023/05/16 11:59:19;;;;;;;3.93;2.13;;;;;;;;;;5080970;28;20205;-66
2023/05/16 12:01:49;;;;;;;2.43;2.23;;;;;;;;;;5080839;28;20246;-65
2023/05/16 12:04:18;;;;;;;3.17;2.30;;;;;;;;;;5080796;28;20570;-65
2023/05/16 12:06:57;;;;;;;3.30;2.10;;;;;;;;;;5080586;28;20226;-64
2023/05/16 12:09:25;;;;;;;4.30;2.37;;;;;;;;;;5080828;28;20212;-65
2023/05/16 12:11:53;;;;;;;2.40;1.97;;;;;;;;;;5080897;28;20669;-64
2023/05/16 12:14:22;;;;;;;4.77;2.47;;;;;;;;;;5080736;28;20526;-64
2023/05/16 12:16:51;;;;;;;6.07;2.47;;;;;;;;;;5080578;28;20234;-64
2023/05/16 12:19:19;;;;;;;5.00;2.20;;;;;;;;;;5080711;28;20301;-63
2023/05/16 12:21:47;;;;;;;7.43;2.30;;;;;;;;;;5080815;28;20206;-64
2023/05/16 12:24:16;;;;;;;3.40;2.07;;;;;;;;;;5080489;28;20202;-65
2023/05/16 12:26:44;;;;;;;2.77;2.10;;;;;;;;;;5080435;28;20317;-65
2023/05/16 12:29:12;;;;;;;6.33;2.57;;;;;;;;;;5080764;28;20210;-68
2023/05/16 12:31:41;;;;;;;2.73;1.90;;;;;;;;;;5080574;28;20213;-66
2023/05/16 12:34:16;;;;;;;2.30;2.00;;;;;;;;;;5073799;28;20215;-68
2023/05/16 12:36:44;;;;;;;4.10;2.20;;;;;;;;;;5071431;28;20233;-68
2023/05/16 12:39:13;;;;;;;3.40;2.20;;;;;;;;;;5079216;28;20237;-68
2023/05/16 12:41:42;;;;;;;2.87;2.07;;;;;;;;;;5073265;28;20742;-66
2023/05/16 12:44:15;;;;;;;1.70;1.60;;;;;;;;;;5076280;28;20843;-65
2023/05/16 12:46:46;;;;;;;2.60;1.97;;;;;;;;;;5077243;28;20269;-66
2023/05/16 12:49:13;;;;;;;4.80;2.27;;;;;;;;;;5077846;28;20202;-65
2023/05/16 12:51:48;;;;;;;2.00;1.90;;;;;;;;;;5069442;28;20646;-67
2023/05/16 12:54:16;;;;;;;2.77;2.07;;;;;;;;;;5079562;28;20292;-71
2023/05/16 12:56:44;;;;;;;2.40;2.10;;;;;;;;;;5079582;28;20482;-67
2023/05/16 12:59:12;;;;;;;3.53;2.27;;;;;;;;;;5079664;28;20300;-67
2023/05/16 13:01:40;;;;;;;2.77;1.80;;;;;;;;;;5079590;28;20242;-68
2023/05/16 13:04:14;;;;;;;3.80;2.47;;;;;;;;;;5079894;28;20233;-67
2023/05/16 13:06:42;;;;;;;3.07;1.97;;;;;;;;;;5079038;28;20230;-68
2023/05/16 13:09:25;;;;;;;5.00;2.03;;;;;;;;;;5079470;28;20210;-65
2023/05/16 13:11:57;;;;;;;4.20;2.07;;;;;;;;;;5079647;28;20202;-65
2023/05/16 13:14:26;;;;;;;2.77;2.00;;;;;;;;;;5079789;28;20214;-65
2023/05/16 13:16:54;;;;;;;2.60;1.57;;;;;;;;;;5079618;28;20226;-66
2023/05/16 13:19:23;;;;;;;2.70;1.57;;;;;;;;;;5079695;28;20202;-65
2023/05/16 13:21:51;;;;;;;2.73;1.87;;;;;;;;;;5075588;28;20572;-65
2023/05/16 13:24:19;;;;;;;2.87;2.07;;;;;;;;;;5071998;28;20214;-66
2023/05/16 13:26:46;;;;;;;3.27;2.27;;;;;;;;;;5078116;28;20222;-64
2023/05/16 13:29:14;;;;;;;1.73;1.63;;;;;;;;;;5074970;28;21033;-65
2023/05/16 13:31:42;;;;;;;3.50;2.23;;;;;;;;;;5079226;28;20206;-66
2023/05/16 13:34:10;;;;;;;3.27;1.90;;;;;;;;;;5079341;28;20626;-65
2023/05/16 13:36:39;;;;;;;4.17;2.13;;;;;;;;;;5079170;28;20226;-65
2023/05/16 13:39:20;;;;;;;4.53;2.80;;;;;;;;;;5079240;28;20210;-65
2023/05/16 13:41:48;;;;;;;3.70;2.20;;;;;;;;;;5079316;28;20260;-65
2023/05/16 13:44:16;;;;;;;6.57;2.40;;;;;;;;;;5079590;28;20238;-66
2023/05/16 13:46:44;;;;;;;3.33;2.03;;;;;;;;;;5079792;28;20232;-65
2023/05/16 13:49:12;;;;;;;3.13;2.30;;;;;;;;;;5079566;28;20590;-65
2023/05/16 13:51:41;;;;;;;5.80;2.00;;;;;;;;;;5065993;28;20676;-65
2023/05/16 13:54:09;;;;;;;3.47;2.13;;;;;;;;;;5078563;28;20234;-66
2023/05/16 13:56:37;;;;;;;2.67;2.17;;;;;;;;;;5079002;28;20229;-66
2023/05/16 13:59:04;;;;;;;4.50;2.20;;;;;;;;;;5078682;28;20234;-64
2023/05/16 14:01:35;;;;;;;4.83;2.30;;;;;;;;;;5078389;28;20245;-63
2023/05/16 14:04:03;;;;;;;5.63;2.20;;;;;;;;;;5078370;28;20199;-63
2023/05/16 14:06:31;;;;;;;2.20;2.00;;;;;;;;;;5073689;28;20226;-64
2023/05/16 14:09:00;;;;;;;3.83;1.90;;;;;;;;;;5076065;28;20240;-64
2023/05/16 14:11:29;;;;;;;3.33;1.60;;;;;;;;;;5077157;28;20573;-66
2023/05/16 14:13:57;;;;;;;2.97;1.90;;;;;;;;;;5074710;28;20199;-64
2023/05/16 14:16:25;;;;;;;4.40;1.97;;;;;;;;;;5076294;28;20605;-63
2023/05/16 14:18:53;;;;;;;2.90;2.13;;;;;;;;;;5075898;28;20308;-64
2023/05/16 14:21:21;;;;;;;5.50;2.20;;;;;;;;;;5076480;28;20631;-65
2023/05/16 14:23:49;;;;;;;2.33;2.13;;;;;;;;;;5071634;28;20206;-64
2023/05/16 14:26:21;;;;;;;3.20;2.10;;;;;;;;;;5077098;28;20317;-63
2023/05/16 14:28:49;;;;;;;3.17;2.20;;;;;;;;;;5074993;28;20221;-65
2023/05/16 14:31:17;;;;;;;2.10;1.90;;;;;;;;;;5077680;28;20572;-64
2023/05/16 14:33:45;;;;;;;2.10;1.90;;;;;;;;;;5077810;28;20620;-65
2023/05/16 14:36:13;;;;;;;6.83;2.13;;;;;;;;;;5078173;28;20222;-63
2023/05/16 14:38:41;;;;;;;4.07;2.07;;;;;;;;;;5078123;28;20206;-64
2023/05/16 14:41:08;;;;;;;3.10;2.17;;;;;;;;;;5077159;28;20209;-65
2023/05/16 14:43:38;;;;;;;6.13;2.40;;;;;;;;;;5076507;28;20677;-65
2023/05/16 14:46:05;;;;;;;3.67;1.73;;;;;;;;;;5079219;28;20224;-64
2023/05/16 14:48:33;;;;;;;3.30;2.00;;;;;;;;;;5077931;28;20310;-65